Time;durP1;ratioP1;P1;durP2;ratioP2;P2;SDS_P1;SDS_P2;PMS_P1;PMS_P2;Temp;Humidity;BMP_temperature;BMP_pressure;BME280_temperature;BME280_humidity;BME280_pressure;Samples;Min_cycle;Max_cycle;Signal;HPM_P1;HPM_P2
2021/05/31 00:01:27;;;;;;;23.33;16.70;;;14.70;74.60;;;;;;5028263;28;20083;-76
2021/05/31 00:03:54;;;;;;;20.33;14.45;;;14.70;74.50;;;;;;5026962;28;20025;-75
2021/05/31 00:06:20;;;;;;;20.40;15.57;;;14.60;73.80;;;;;;5019345;28;20460;-75
2021/05/31 00:08:46;;;;;;;18.73;15.57;;;14.60;73.80;;;;;;5024988;28;20057;-76
2021/05/31 00:11:12;;;;;;;24.27;15.90;;;14.60;73.60;;;;;;5024838;28;20473;-77
2021/05/31 00:13:37;;;;;;;21.58;15.93;;;14.60;73.60;;;;;;5027080;28;20134;-75
2021/05/31 00:16:03;;;;;;;20.02;14.65;;;14.60;73.50;;;;;;5028259;28;20056;-78
2021/05/31 00:18:29;;;;;;;19.38;15.35;;;14.60;73.60;;;;;;5025293;28;20478;-76
2021/05/31 00:20:55;;;;;;;20.92;14.57;;;14.50;73.10;;;;;;5020351;28;20393;-76
2021/05/31 00:23:20;;;;;;;19.38;15.10;;;14.50;73.20;;;;;;5014259;28;20355;-77
2021/05/31 00:25:46;;;;;;;18.70;13.73;;;14.50;73.50;;;;;;5023088;28;20207;-76
2021/05/31 00:28:13;;;;;;;16.67;13.90;;;14.40;73.50;;;;;;5023555;28;20021;-76
2021/05/31 00:30:39;;;;;;;17.17;13.60;;;14.40;73.50;;;;;;5017959;28;20037;-79
2021/05/31 00:33:06;;;;;;;18.50;14.07;;;14.40;73.80;;;;;;5027541;28;20037;-78
2021/05/31 00:35:31;;;;;;;18.20;14.25;;;14.40;73.80;;;;;;5025474;28;20060;-76
2021/05/31 00:37:57;;;;;;;16.50;13.73;;;14.30;73.70;;;;;;5026724;28;20479;-77
2021/05/31 00:40:25;;;;;;;19.05;14.52;;;14.30;73.40;;;;;;5027717;28;20121;-77
2021/05/31 00:42:51;;;;;;;17.95;14.25;;;14.20;73.30;;;;;;5026625;28;20095;-76
2021/05/31 00:45:17;;;;;;;17.40;14.23;;;14.20;73.20;;;;;;5022461;28;20041;-76
2021/05/31 00:47:43;;;;;;;18.42;13.73;;;14.20;73.10;;;;;;4998631;28;20097;-76
2021/05/31 00:50:11;;;;;;;16.48;13.82;;;14.20;73.20;;;;;;5022378;28;20033;-76
2021/05/31 00:52:37;;;;;;;17.58;13.60;;;14.20;73.20;;;;;;5018130;28;20112;-79
2021/05/31 00:55:04;;;;;;;17.38;13.65;;;14.10;73.30;;;;;;5025236;28;20112;-76
2021/05/31 00:57:30;;;;;;;17.67;13.63;;;14.10;73.50;;;;;;5021649;28;20062;-76
2021/05/31 00:59:56;;;;;;;18.73;13.70;;;14.10;73.40;;;;;;5023272;28;20056;-76
2021/05/31 01:02:22;;;;;;;15.90;13.00;;;14.10;73.20;;;;;;5012933;28;20026;-76
2021/05/31 01:04:48;;;;;;;18.23;14.45;;;14.10;73.20;;;;;;5023652;28;20030;-76
2021/05/31 01:07:22;;;;;;;17.48;13.57;;;14.10;73.30;;;;;;5020910;28;20224;-76
2021/05/31 01:10:03;;;;;;;16.08;13.38;;;14.10;73.20;;;;;;5024414;28;20948;-76
2021/05/31 01:12:33;;;;;;;16.33;13.55;;;14.10;73.20;;;;;;5012201;28;20033;-76
2021/05/31 01:15:09;;;;;;;18.63;13.43;;;14.00;73.40;;;;;;5010314;28;20038;-78
2021/05/31 01:17:46;;;;;;;16.67;13.43;;;14.00;73.50;;;;;;5005210;28;20033;-75
2021/05/31 01:20:41;;;;;;;15.88;13.43;;;14.10;73.50;;;;;;5010351;28;20034;-75
2021/05/31 01:23:08;;;;;;;;;;;14.00;73.50;;;;;;5004757;28;20059;-76
2021/05/31 01:26:07;;;;;;;18.65;13.10;;;13.90;73.50;;;;;;5017460;28;19909;-76
2021/05/31 01:29:09;;;;;;;17.85;13.93;;;13.90;73.80;;;;;;5008474;28;20030;-76
2021/05/31 01:31:54;;;;;;;19.73;14.25;;;13.80;73.80;;;;;;5008515;28;20113;-80
2021/05/31 01:34:24;;;;;;;17.50;14.48;;;13.70;74.20;;;;;;5008056;28;20029;-76
2021/05/31 01:36:54;;;;;;;19.17;15.25;;;13.60;74.50;;;;;;5009424;28;20437;-76
2021/05/31 01:39:24;;;;;;;16.58;13.82;;;13.60;74.90;;;;;;5009993;28;20053;-75
2021/05/31 01:41:51;;;;;;;18.38;14.02;;;13.60;75.00;;;;;;5006752;28;20079;-79
2021/05/31 01:44:20;;;;;;;18.02;13.13;;;13.60;75.00;;;;;;5006495;28;20068;-76
2021/05/31 01:46:46;;;;;;;16.48;13.50;;;13.60;75.10;;;;;;5017725;28;20025;-75
2021/05/31 01:49:13;;;;;;;18.65;14.65;;;13.50;75.20;;;;;;5023956;28;20017;-76
2021/05/31 01:51:40;;;;;;;17.17;14.05;;;13.50;75.10;;;;;;5011970;28;20038;-80
2021/05/31 01:54:08;;;;;;;17.77;14.15;;;13.40;75.30;;;;;;5030944;28;20032;-76
2021/05/31 01:56:38;;;;;;;21.73;15.70;;;13.40;75.70;;;;;;5025316;28;20156;-76
2021/05/31 01:59:06;;;;;;;18.23;13.82;;;13.20;76.10;;;;;;5028471;28;20040;-75
2021/05/31 02:01:33;;;;;;;19.70;14.60;;;13.20;76.30;;;;;;5029733;28;20416;-75
2021/05/31 02:03:59;;;;;;;19.25;13.85;;;13.10;76.40;;;;;;5027271;28;20022;-75
2021/05/31 02:06:25;;;;;;;19.20;14.45;;;13.20;76.40;;;;;;5030168;28;20025;-76
2021/05/31 02:08:51;;;;;;;17.27;13.63;;;13.20;76.20;;;;;;5026332;28;20029;-75
2021/05/31 02:11:51;;;;;;;18.95;14.25;;;13.10;76.30;;;;;;5011300;28;20034;-75
2021/05/31 02:14:53;;;;;;;18.85;14.00;;;13.20;76.30;;;;;;5030579;28;20042;-79
2021/05/31 02:17:37;;;;;;;17.27;14.70;;;13.20;76.40;;;;;;5014256;28;20076;-77
2021/05/31 02:20:08;;;;;;;19.27;14.20;;;13.20;76.50;;;;;;5025801;28;20095;-76
2021/05/31 02:22:38;;;;;;;18.63;13.75;;;13.20;76.40;;;;;;5008710;28;20014;-75
2021/05/31 02:25:05;;;;;;;18.30;14.30;;;13.20;76.50;;;;;;5026379;28;20480;-76
2021/05/31 02:27:31;;;;;;;18.55;14.45;;;13.10;76.30;;;;;;5030224;28;20029;-75
2021/05/31 02:29:59;;;;;;;18.40;14.43;;;13.10;76.40;;;;;;5030595;28;20409;-76
2021/05/31 02:32:27;;;;;;;20.25;14.77;;;12.90;77.00;;;;;;5029797;28;20025;-75
2021/05/31 02:34:54;;;;;;;17.65;13.98;;;12.90;77.20;;;;;;5031359;28;20113;-78
2021/05/31 02:37:27;;;;;;;18.13;13.68;;;12.90;77.30;;;;;;5020830;28;20116;-75
2021/05/31 02:39:53;;;;;;;17.77;14.20;;;12.90;77.30;;;;;;5020542;28;20030;-76
2021/05/31 02:42:18;;;;;;;19.25;14.75;;;12.90;77.30;;;;;;5021002;28;20121;-75
2021/05/31 02:44:44;;;;;;;17.90;14.15;;;12.90;77.20;;;;;;5018666;28;20046;-75
2021/05/31 02:47:09;;;;;;;21.23;14.88;;;12.90;77.10;;;;;;5013804;28;20083;-76
2021/05/31 02:49:35;;;;;;;17.20;14.18;;;12.90;76.80;;;;;;5020629;28;20028;-76
2021/05/31 02:52:01;;;;;;;18.13;14.15;;;12.90;76.70;;;;;;5024671;28;20092;-76
2021/05/31 02:54:26;;;;;;;20.35;14.13;;;12.90;76.50;;;;;;5025247;28;20068;-76
2021/05/31 02:56:52;;;;;;;17.77;13.88;;;12.90;76.40;;;;;;5025214;28;20129;-75
2021/05/31 02:59:17;;;;;;;15.07;13.23;;;12.80;76.60;;;;;;5022921;28;20036;-75
2021/05/31 03:01:43;;;;;;;17.17;13.88;;;12.80;76.80;;;;;;5026720;28;20121;-75
2021/05/31 03:04:09;;;;;;;16.80;14.38;;;12.80;76.80;;;;;;5016280;28;20361;-75
2021/05/31 03:06:34;;;;;;;19.60;14.93;;;12.80;76.90;;;;;;5024830;28;20033;-76
2021/05/31 03:09:00;;;;;;;18.20;14.27;;;12.80;76.80;;;;;;5021377;28;20022;-75
2021/05/31 03:11:26;;;;;;;17.88;13.82;;;12.80;76.90;;;;;;5017793;28;20109;-75
2021/05/31 03:13:51;;;;;;;20.00;14.25;;;12.80;76.70;;;;;;5022824;28;20026;-75
2021/05/31 03:16:17;;;;;;;21.42;14.65;;;12.70;76.70;;;;;;5020339;28;20103;-75
2021/05/31 03:18:43;;;;;;;19.33;13.75;;;12.70;76.90;;;;;;5020321;28;20511;-75
2021/05/31 03:21:08;;;;;;;16.35;14.27;;;12.60;77.20;;;;;;5023144;28;20049;-75
2021/05/31 03:23:34;;;;;;;18.67;14.13;;;12.60;77.50;;;;;;5027987;28;20149;-81
2021/05/31 03:26:00;;;;;;;17.73;14.45;;;12.60;77.40;;;;;;5025770;28;20026;-75
2021/05/31 03:28:25;;;;;;;19.30;13.40;;;12.60;77.30;;;;;;5012419;28;20026;-75
2021/05/31 03:30:51;;;;;;;18.27;14.30;;;12.60;77.40;;;;;;5016596;28;20029;-75
2021/05/31 03:33:17;;;;;;;16.95;14.20;;;12.50;77.60;;;;;;5014874;28;20088;-75
2021/05/31 03:35:42;;;;;;;18.38;14.07;;;12.50;77.70;;;;;;5005822;28;20385;-76
2021/05/31 03:38:08;;;;;;;18.23;14.38;;;12.60;77.70;;;;;;5020222;28;20476;-75
2021/05/31 03:40:34;;;;;;;18.80;14.23;;;12.60;77.40;;;;;;5017234;28;20026;-75
2021/05/31 03:42:59;;;;;;;17.67;13.05;;;12.60;77.40;;;;;;5028291;28;20061;-75
2021/05/31 03:45:25;;;;;;;17.88;13.50;;;12.60;77.30;;;;;;5019439;28;20042;-75
2021/05/31 03:47:51;;;;;;;16.58;13.75;;;12.60;77.50;;;;;;5028502;28;20368;-75
2021/05/31 03:50:17;;;;;;;17.55;14.18;;;12.60;77.40;;;;;;5015967;28;20125;-78
2021/05/31 03:52:43;;;;;;;18.52;14.55;;;12.60;77.40;;;;;;5020306;28;20033;-75
2021/05/31 03:55:10;;;;;;;18.02;13.85;;;12.60;77.50;;;;;;5020793;28;20034;-73
2021/05/31 03:57:37;;;;;;;19.80;14.25;;;12.60;77.50;;;;;;5006104;28;20026;-73
2021/05/31 04:00:05;;;;;;;17.98;14.80;;;12.50;77.70;;;;;;5003230;28;20389;-70
2021/05/31 04:02:31;;;;;;;19.20;15.27;;;12.50;77.90;;;;;;5006509;28;20060;-71
2021/05/31 04:04:57;;;;;;;18.42;14.43;;;12.50;77.90;;;;;;5000187;28;20386;-70
2021/05/31 04:12:33;;;;;;;19.42;14.98;;;12.60;77.80;;;;;;5015607;28;20124;-71
2021/05/31 04:14:59;;;;;;;17.50;13.90;;;12.60;77.60;;;;;;5017353;28;20121;-70
2021/05/31 04:17:25;;;;;;;19.38;13.63;;;12.60;77.50;;;;;;5024341;28;20425;-71
2021/05/31 04:19:50;;;;;;;17.73;14.05;;;12.60;77.30;;;;;;5015441;28;20192;-71
2021/05/31 04:22:16;;;;;;;16.05;13.52;;;12.70;77.20;;;;;;5008488;28;20618;-72
2021/05/31 04:24:42;;;;;;;18.70;14.57;;;12.70;77.20;;;;;;5005374;28;20176;-70
2021/05/31 04:27:07;;;;;;;19.17;13.73;;;12.70;77.30;;;;;;5016865;28;20061;-70
2021/05/31 04:29:33;;;;;;;19.20;14.32;;;12.70;77.40;;;;;;5023640;28;20210;-71
2021/05/31 04:31:59;;;;;;;16.98;13.27;;;12.70;77.20;;;;;;5018075;28;20034;-70
2021/05/31 04:34:25;;;;;;;19.45;14.80;;;12.70;77.20;;;;;;5018430;28;20037;-70
2021/05/31 04:36:50;;;;;;;17.35;13.50;;;12.80;77.20;;;;;;5017687;28;20048;-71
2021/05/31 04:39:16;;;;;;;16.73;12.77;;;12.90;77.10;;;;;;5017774;28;20046;-71
2021/05/31 04:41:42;;;;;;;19.80;14.50;;;12.90;76.80;;;;;;5023818;28;20052;-71
2021/05/31 04:44:07;;;;;;;16.55;13.52;;;13.00;76.60;;;;;;5021190;28;20057;-74
2021/05/31 04:46:33;;;;;;;17.48;13.43;;;13.10;76.30;;;;;;5018974;28;20496;-70
2021/05/31 04:49:03;;;;;;;16.70;13.60;;;13.10;76.10;;;;;;5017333;28;20346;-70
2021/05/31 04:51:30;;;;;;;16.55;12.50;;;13.20;75.90;;;;;;5015251;28;20389;-71
2021/05/31 04:53:57;;;;;;;16.08;12.80;;;13.30;75.90;;;;;;5017166;28;20033;-73
2021/05/31 04:56:24;;;;;;;16.40;13.38;;;13.30;75.70;;;;;;5018027;28;20470;-72
2021/05/31 04:58:50;;;;;;;17.25;12.93;;;13.40;75.40;;;;;;5019819;28;20477;-73
2021/05/31 05:01:15;;;;;;;15.65;12.57;;;13.50;75.30;;;;;;5010796;28;20042;-70
2021/05/31 05:03:41;;;;;;;16.45;13.23;;;13.60;75.20;;;;;;5019724;28;20048;-70
2021/05/31 05:06:07;;;;;;;16.70;12.85;;;13.60;74.90;;;;;;5014539;28;20385;-70
2021/05/31 05:08:32;;;;;;;16.05;12.20;;;13.70;74.60;;;;;;5015980;28;20049;-69
2021/05/31 05:10:58;;;;;;;17.58;13.07;;;13.70;74.40;;;;;;5017300;28;20038;-72
2021/05/31 05:13:24;;;;;;;15.77;12.25;;;13.90;74.40;;;;;;5015542;28;20038;-69
2021/05/31 05:15:50;;;;;;;17.98;11.98;;;14.70;72.40;;;;;;5013577;28;20030;-71
2021/05/31 05:18:15;;;;;;;13.30;10.50;;;16.40;67.00;;;;;;5006723;28;20686;-71
2021/05/31 05:20:41;;;;;;;13.60;10.23;;;18.00;60.80;;;;;;5020309;28;20053;-70
2021/05/31 05:23:07;;;;;;;13.02;9.90;;;19.50;55.60;;;;;;5014973;28;20447;-74
2021/05/31 05:25:33;;;;;;;11.43;9.27;;;20.70;52.20;;;;;;5025664;28;20034;-69
2021/05/31 05:27:58;;;;;;;12.90;8.90;;;21.40;49.80;;;;;;5020603;28;20030;-69
2021/05/31 05:30:26;;;;;;;12.68;9.68;;;21.80;48.90;;;;;;5004738;28;20037;-70
2021/05/31 05:32:53;;;;;;;15.38;9.73;;;22.40;47.10;;;;;;5008799;28;20030;-69
2021/05/31 05:35:39;;;;;;;13.73;9.60;;;22.90;45.90;;;;;;5018647;28;20132;-70
2021/05/31 05:38:36;;;;;;;13.55;9.73;;;22.80;46.10;;;;;;5023957;28;20036;-70
2021/05/31 05:43:48;;;;;;;11.25;9.55;;;22.60;46.20;;;;;;5019264;28;20124;-70
2021/05/31 05:48:42;;;;;;;13.00;9.38;;;23.10;45.10;;;;;;5021510;28;20037;-69
2021/05/31 05:51:08;;;;;;;12.20;9.55;;;22.70;45.20;;;;;;5023574;28;20121;-70
2021/05/31 05:53:44;;;;;;;12.75;10.30;;;22.30;46.30;;;;;;5017546;28;20531;-72
2021/05/31 05:56:21;;;;;;;13.05;9.85;;;21.60;48.40;;;;;;5006057;28;20533;-70
2021/05/31 05:58:51;;;;;;;14.07;10.07;;;20.40;50.90;;;;;;5014137;28;20037;-70
2021/05/31 06:01:18;;;;;;;14.90;10.73;;;19.50;53.50;;;;;;5017243;28;20129;-70
2021/05/31 06:03:44;;;;;;;13.40;9.85;;;18.90;55.60;;;;;;5018133;28;20034;-69
2021/05/31 06:06:10;;;;;;;13.35;10.88;;;18.40;58.20;;;;;;5017612;28;20060;-69
2021/05/31 06:08:36;;;;;;;14.27;9.95;;;18.20;58.40;;;;;;5020514;28;20475;-69
2021/05/31 06:11:03;;;;;;;13.75;10.23;;;18.10;59.00;;;;;;5024765;28;21627;-69
2021/05/31 06:13:29;;;;;;;14.38;11.18;;;18.00;59.40;;;;;;5023505;28;20041;-68
2021/05/31 06:15:59;;;;;;;15.77;11.57;;;17.80;60.70;;;;;;5021938;28;20073;-70
2021/05/31 06:18:25;;;;;;;13.20;10.68;;;17.80;60.50;;;;;;5024246;28;20397;-73
2021/05/31 06:20:51;;;;;;;14.88;10.27;;;17.80;61.10;;;;;;5025572;28;20159;-74
2021/05/31 06:23:16;;;;;;;19.25;11.00;;;17.90;61.00;;;;;;5023578;28;20116;-71
2021/05/31 06:25:42;;;;;;;12.40;9.85;;;18.00;60.90;;;;;;5019991;28;20048;-69
2021/05/31 06:28:08;;;;;;;14.75;10.90;;;18.10;60.40;;;;;;5017753;28;20108;-69
2021/05/31 06:30:35;;;;;;;16.85;10.02;;;18.30;60.30;;;;;;5020554;28;20037;-69
2021/05/31 06:33:02;;;;;;;13.80;10.32;;;18.40;59.80;;;;;;5022450;28;20037;-70
2021/05/31 06:35:28;;;;;;;13.60;11.15;;;18.60;58.70;;;;;;5023501;28;20189;-69
2021/05/31 06:37:54;;;;;;;13.73;10.27;;;18.60;59.30;;;;;;5022016;28;20037;-70
2021/05/31 06:40:20;;;;;;;15.90;10.70;;;18.70;59.50;;;;;;5022354;28;20031;-69
2021/05/31 06:42:48;;;;;;;14.50;10.48;;;18.90;59.30;;;;;;5005818;28;20116;-69
2021/05/31 06:45:23;;;;;;;12.00;9.50;;;19.00;57.80;;;;;;4999119;28;20033;-69
2021/05/31 06:47:53;;;;;;;15.05;9.55;;;19.00;56.80;;;;;;5000592;28;20498;-69
2021/05/31 06:50:20;;;;;;;14.38;8.55;;;19.10;56.60;;;;;;5000189;28;20085;-69
2021/05/31 06:52:47;;;;;;;14.15;9.20;;;19.20;56.60;;;;;;5016016;28;20037;-70
2021/05/31 06:55:13;;;;;;;13.93;9.07;;;19.30;56.60;;;;;;5015094;28;20033;-68
2021/05/31 06:57:40;;;;;;;13.00;8.02;;;19.50;56.20;;;;;;5019723;28;20132;-71
2021/05/31 07:00:09;;;;;;;15.27;9.32;;;19.60;57.00;;;;;;5020631;28;20717;-68
2021/05/31 07:02:35;;;;;;;11.45;7.75;;;19.70;55.50;;;;;;5023279;28;20139;-67
2021/05/31 07:05:01;;;;;;;14.15;8.82;;;19.60;55.70;;;;;;5020404;28;20049;-71
2021/05/31 07:07:26;;;;;;;10.98;8.40;;;19.80;55.60;;;;;;5016730;28;20208;-73
2021/05/31 07:09:52;;;;;;;10.82;8.27;;;19.90;54.80;;;;;;5007709;28;20564;-68
2021/05/31 07:12:18;;;;;;;10.98;7.45;;;20.10;54.80;;;;;;5022767;28;20025;-70
2021/05/31 07:14:46;;;;;;;9.25;7.43;;;20.20;56.00;;;;;;5029300;28;20107;-69
2021/05/31 07:17:13;;;;;;;12.15;7.38;;;20.50;53.20;;;;;;4998980;28;21310;-70
2021/05/31 07:19:44;;;;;;;10.93;7.35;;;20.60;53.10;;;;;;4998229;28;20689;-69
2021/05/31 07:22:19;;;;;;;10.18;7.45;;;20.80;52.70;;;;;;5015942;28;20046;-70
2021/05/31 07:24:45;;;;;;;11.98;7.50;;;20.90;52.00;;;;;;5036703;28;20029;-69
2021/05/31 07:27:11;;;;;;;10.77;7.07;;;21.10;51.40;;;;;;5019699;28;20029;-70
2021/05/31 07:29:38;;;;;;;10.40;7.60;;;21.20;49.90;;;;;;5017599;28;20042;-69
2021/05/31 07:32:05;;;;;;;10.68;7.05;;;21.00;51.20;;;;;;5018821;28;20457;-69
2021/05/31 07:34:31;;;;;;;12.52;7.05;;;21.10;51.40;;;;;;5017399;28;20040;-71
2021/05/31 07:36:57;;;;;;;9.48;6.85;;;21.20;52.40;;;;;;5012902;28;20041;-69
2021/05/31 07:39:23;;;;;;;10.82;7.38;;;21.40;50.60;;;;;;5001999;28;20125;-69
2021/05/31 07:41:48;;;;;;;11.05;6.78;;;21.60;50.20;;;;;;5019931;28;20037;-69
2021/05/31 07:44:14;;;;;;;9.20;7.13;;;21.70;49.10;;;;;;5018014;28;20487;-71
2021/05/31 07:46:40;;;;;;;11.82;6.40;;;21.80;49.60;;;;;;5018674;28;20036;-70
2021/05/31 07:49:06;;;;;;;10.95;6.30;;;22.10;48.10;;;;;;5000430;28;20045;-70
2021/05/31 07:51:32;;;;;;;8.18;5.63;;;22.10;47.20;;;;;;5019192;28;20397;-69
2021/05/31 07:53:59;;;;;;;10.60;6.28;;;22.20;47.20;;;;;;5019212;28;20144;-70
2021/05/31 07:56:27;;;;;;;10.73;6.30;;;22.40;47.00;;;;;;5016971;28;20136;-70
2021/05/31 07:58:56;;;;;;;10.40;6.32;;;22.30;46.90;;;;;;4999437;28;20129;-69
2021/05/31 08:01:23;;;;;;;10.25;5.90;;;22.30;46.90;;;;;;5011002;28;20049;-71
2021/05/31 08:03:49;;;;;;;9.48;5.55;;;22.50;47.90;;;;;;5021858;28;20098;-70
2021/05/31 08:06:15;;;;;;;12.07;6.05;;;22.60;46.90;;;;;;5018626;28;20076;-71
2021/05/31 08:08:42;;;;;;;10.10;5.93;;;22.70;45.40;;;;;;5019543;28;20056;-70
2021/05/31 08:11:09;;;;;;;9.80;5.90;;;22.80;46.50;;;;;;5021443;28;20037;-70
2021/05/31 08:13:35;;;;;;;8.98;5.47;;;22.90;45.10;;;;;;5019546;28;20374;-70
2021/05/31 08:16:02;;;;;;;10.80;5.93;;;23.00;46.20;;;;;;5018117;28;20049;-70
2021/05/31 08:18:28;;;;;;;8.75;6.30;;;23.00;45.70;;;;;;5016767;28;20033;-68
2021/05/31 08:20:53;;;;;;;9.82;5.88;;;23.20;45.00;;;;;;5018501;28;20029;-69
2021/05/31 08:23:19;;;;;;;9.02;6.00;;;23.30;45.50;;;;;;5005653;28;20124;-69
2021/05/31 08:25:46;;;;;;;9.27;5.85;;;23.50;44.10;;;;;;5013353;28;20025;-72
2021/05/31 08:28:12;;;;;;;9.30;6.47;;;23.50;44.80;;;;;;5017600;28;20040;-70
2021/05/31 08:30:40;;;;;;;9.02;6.53;;;23.60;44.00;;;;;;5017818;28;20033;-71
2021/05/31 08:33:07;;;;;;;9.65;5.13;;;23.30;43.60;;;;;;5018647;28;20117;-71
2021/05/31 08:35:36;;;;;;;8.93;6.18;;;23.40;43.00;;;;;;5019413;28;20457;-71
2021/05/31 08:38:02;;;;;;;10.70;5.95;;;23.50;42.90;;;;;;5018970;28;20072;-70
2021/05/31 08:40:28;;;;;;;9.00;5.88;;;23.70;44.40;;;;;;4997099;28;20397;-72
2021/05/31 08:42:54;;;;;;;6.65;4.30;;;23.40;43.90;;;;;;5010462;28;20033;-71
2021/05/31 08:45:22;;;;;;;7.53;4.35;;;23.60;42.10;;;;;;5017751;28;20048;-69
2021/05/31 08:47:49;;;;;;;6.68;4.22;;;23.30;40.60;;;;;;5017099;28;20481;-71
2021/05/31 08:50:21;;;;;;;8.38;4.25;;;23.60;41.60;;;;;;5017627;28;20116;-69
2021/05/31 08:52:47;;;;;;;7.97;3.90;;;23.80;40.70;;;;;;5018354;28;20112;-72
2021/05/31 08:55:15;;;;;;;6.60;3.92;;;24.10;39.50;;;;;;5018172;28;20037;-71
2021/05/31 08:57:41;;;;;;;9.38;4.07;;;24.30;39.80;;;;;;5020048;28;20149;-68
2021/05/31 09:00:10;;;;;;;8.95;4.25;;;24.30;37.90;;;;;;5015499;28;20133;-69
2021/05/31 09:02:37;;;;;;;6.75;3.88;;;24.50;38.10;;;;;;5017412;28;20109;-68
2021/05/31 09:05:04;;;;;;;6.70;3.83;;;24.60;37.10;;;;;;5015999;28;20051;-68
2021/05/31 09:07:30;;;;;;;7.53;3.92;;;24.70;36.80;;;;;;5019342;28;20036;-69
2021/05/31 09:09:55;;;;;;;5.00;3.10;;;24.80;38.20;;;;;;5015983;28;20026;-68
2021/05/31 09:12:27;;;;;;;6.38;3.95;;;24.90;35.60;;;;;;5017022;28;20124;-68
2021/05/31 09:15:14;;;;;;;7.93;4.20;;;24.90;36.80;;;;;;5016804;28;20049;-68
2021/05/31 09:17:42;;;;;;;7.68;3.95;;;24.90;38.00;;;;;;4994875;28;20033;-69
2021/05/31 09:20:09;;;;;;;7.55;4.18;;;25.10;37.30;;;;;;5020912;28;20129;-71
2021/05/31 09:22:49;;;;;;;7.32;3.78;;;25.10;38.10;;;;;;5019309;28;20042;-69
2021/05/31 09:25:35;;;;;;;7.28;4.13;;;25.20;36.50;;;;;;5017203;28;20558;-71
2021/05/31 09:28:11;;;;;;;7.80;4.43;;;25.40;37.10;;;;;;5007335;28;20470;-70
2021/05/31 09:30:42;;;;;;;8.75;4.18;;;25.20;36.40;;;;;;5018421;28;20042;-70
2021/05/31 09:33:11;;;;;;;7.55;4.20;;;25.10;36.70;;;;;;5017410;28;20467;-69
2021/05/31 09:35:42;;;;;;;7.07;4.00;;;24.50;37.10;;;;;;5011720;28;20062;-69
2021/05/31 09:38:07;;;;;;;7.07;3.63;;;24.20;37.40;;;;;;5007684;28;20037;-70
2021/05/31 09:40:33;;;;;;;7.38;4.15;;;24.10;38.70;;;;;;5018294;28;20441;-70
2021/05/31 09:43:02;;;;;;;8.18;4.20;;;24.50;37.50;;;;;;5000818;28;20042;-70
2021/05/31 09:45:29;;;;;;;10.35;4.05;;;24.50;37.20;;;;;;5012610;28;21219;-70
2021/05/31 09:47:59;;;;;;;7.43;3.88;;;24.20;37.30;;;;;;5013817;28;20034;-72
2021/05/31 09:50:28;;;;;;;7.13;4.05;;;24.50;37.60;;;;;;5004052;28;20030;-70
2021/05/31 09:53:14;;;;;;;7.05;3.88;;;24.80;36.90;;;;;;5020584;28;20034;-74
2021/05/31 09:55:46;;;;;;;8.80;4.00;;;25.10;36.10;;;;;;5021447;28;20048;-70
2021/05/31 09:58:17;;;;;;;7.53;4.72;;;25.30;36.40;;;;;;5021473;28;20552;-70
2021/05/31 10:00:52;;;;;;;9.48;4.40;;;25.10;34.90;;;;;;5028284;28;20049;-69
2021/05/31 10:08:40;;;;;;;8.90;4.40;;;25.10;37.60;;;;;;5002428;28;20080;-70
2021/05/31 10:11:06;;;;;;;6.95;4.00;;;25.60;35.80;;;;;;4994923;28;20042;-70
2021/05/31 10:13:32;;;;;;;8.52;4.22;;;24.50;35.60;;;;;;5000141;28;20602;-70
2021/05/31 10:16:01;;;;;;;10.48;4.72;;;24.20;35.90;;;;;;5014445;28;20045;-71
2021/05/31 10:18:29;;;;;;;7.45;4.53;;;23.90;37.60;;;;;;5016271;28;20092;-70
2021/05/31 10:20:55;;;;;;;8.45;4.53;;;24.60;36.80;;;;;;5025850;28;20033;-69
2021/05/31 10:23:21;;;;;;;9.07;4.75;;;24.60;35.70;;;;;;5021789;28;20440;-73
2021/05/31 10:25:51;;;;;;;8.43;4.75;;;24.90;35.90;;;;;;5021577;28;20038;-72
2021/05/31 10:28:16;;;;;;;7.57;4.78;;;25.10;36.80;;;;;;5009318;28;20274;-71
2021/05/31 10:30:45;;;;;;;10.10;5.15;;;25.30;37.20;;;;;;4998098;28;20112;-73
2021/05/31 10:33:21;;;;;;;9.57;5.15;;;25.70;37.30;;;;;;5000484;28;20382;-70
2021/05/31 10:35:48;;;;;;;7.93;4.82;;;25.40;35.10;;;;;;5007032;28;20408;-70
2021/05/31 10:38:23;;;;;;;9.90;4.45;;;25.10;36.30;;;;;;5020903;28;20116;-70
2021/05/31 10:40:54;;;;;;;7.82;4.93;;;25.30;36.70;;;;;;5010213;28;20108;-73
2021/05/31 10:43:21;;;;;;;7.40;4.53;;;25.20;38.20;;;;;;5022426;28;20034;-71
2021/05/31 10:45:49;;;;;;;8.02;4.10;;;25.30;36.10;;;;;;5019403;28;20041;-71
2021/05/31 10:48:15;;;;;;;6.90;4.15;;;25.40;34.20;;;;;;4997626;28;20445;-70
2021/05/31 10:50:47;;;;;;;7.63;3.70;;;25.00;36.00;;;;;;4997961;28;20043;-71
2021/05/31 10:53:19;;;;;;;7.35;4.25;;;25.00;35.10;;;;;;5006580;28;20121;-71
2021/05/31 10:55:57;;;;;;;8.82;4.68;;;24.70;34.90;;;;;;5001033;28;20438;-70
2021/05/31 10:58:36;;;;;;;8.05;4.40;;;24.60;35.30;;;;;;5002799;28;20060;-70
2021/05/31 11:01:13;;;;;;;8.32;3.97;;;24.90;36.30;;;;;;5001874;28;20042;-70
2021/05/31 11:04:03;;;;;;;8.23;4.47;;;24.80;35.50;;;;;;5001079;28;20038;-70
2021/05/31 11:06:35;;;;;;;8.13;4.78;;;25.20;36.30;;;;;;5005796;28;20042;-69
2021/05/31 11:09:13;;;;;;;7.03;4.18;;;25.70;36.30;;;;;;4997868;28;20505;-69
2021/05/31 11:11:45;;;;;;;11.27;4.88;;;26.00;34.80;;;;;;5003426;28;20041;-70
2021/05/31 11:14:12;;;;;;;8.32;4.63;;;26.20;34.60;;;;;;5006012;28;20480;-70
2021/05/31 11:17:10;;;;;;;10.07;4.40;;;26.20;36.00;;;;;;5006800;28;20042;-70
2021/05/31 11:19:41;;;;;;;7.45;3.85;;;26.20;35.00;;;;;;5016417;28;20029;-70
2021/05/31 11:22:23;;;;;;;7.25;4.47;;;26.10;34.90;;;;;;5019425;28;20463;-71
2021/05/31 11:25:01;;;;;;;7.78;4.38;;;26.20;34.10;;;;;;5023831;28;20041;-70
2021/05/31 11:27:38;;;;;;;8.65;5.13;;;26.50;34.40;;;;;;5026621;28;20062;-72
2021/05/31 11:30:07;;;;;;;8.98;4.78;;;26.40;33.60;;;;;;5023917;28;20040;-71
2021/05/31 11:32:33;;;;;;;9.10;5.60;;;26.20;34.90;;;;;;5024127;28;20470;-70
2021/05/31 11:35:00;;;;;;;9.00;5.50;;;26.30;34.80;;;;;;5018767;28;20036;-69
2021/05/31 11:37:29;;;;;;;7.28;4.30;;;26.40;34.40;;;;;;5006672;28;20478;-70
2021/05/31 11:39:56;;;;;;;12.02;5.45;;;26.30;33.70;;;;;;5031099;28;20384;-69
2021/05/31 11:42:22;;;;;;;7.38;4.63;;;26.00;34.10;;;;;;5018542;28;20478;-70
2021/05/31 11:44:50;;;;;;;8.27;4.57;;;26.10;34.60;;;;;;5025778;28;20124;-70
2021/05/31 11:47:23;;;;;;;8.18;4.97;;;26.20;33.50;;;;;;5008035;28;20085;-71
2021/05/31 11:49:49;;;;;;;7.20;4.55;;;26.00;33.60;;;;;;5022392;28;20030;-70
2021/05/31 11:52:16;;;;;;;8.63;5.00;;;26.10;34.60;;;;;;5016896;28;20033;-70
2021/05/31 11:54:43;;;;;;;8.30;4.53;;;26.10;34.30;;;;;;5018673;28;20034;-70
2021/05/31 11:57:11;;;;;;;8.27;4.80;;;26.10;33.90;;;;;;5027416;28;20045;-70
2021/05/31 11:59:39;;;;;;;5.43;3.53;;;26.00;33.90;;;;;;5000607;28;20034;-70
2021/05/31 12:02:07;;;;;;;8.38;4.25;;;26.00;34.50;;;;;;5014906;28;20056;-69
2021/05/31 12:04:34;;;;;;;10.02;5.07;;;26.40;34.00;;;;;;5019297;28;20040;-70
2021/05/31 12:07:02;;;;;;;9.52;4.50;;;26.60;32.10;;;;;;5028124;28;20030;-69
2021/05/31 12:09:28;;;;;;;7.25;4.38;;;26.60;33.10;;;;;;5018513;28;20465;-69
2021/05/31 12:11:55;;;;;;;11.05;5.13;;;26.50;33.50;;;;;;5017446;28;20034;-74
2021/05/31 12:14:24;;;;;;;7.00;4.68;;;26.10;34.00;;;;;;5025243;28;20158;-69
2021/05/31 12:16:58;;;;;;;8.23;4.93;;;26.30;34.50;;;;;;5014768;28;20041;-69
2021/05/31 12:19:25;;;;;;;;;;;26.50;33.60;;;;;;5019743;28;20117;-70
2021/05/31 12:21:53;;;;;;;8.82;5.80;;;26.40;34.00;;;;;;5015113;28;19966;-69
2021/05/31 12:24:31;;;;;;;9.77;5.30;;;26.20;34.00;;;;;;5022455;28;20390;-69
2021/05/31 12:26:59;;;;;;;8.90;4.85;;;26.50;33.40;;;;;;5023659;28;20063;-70
2021/05/31 12:29:38;;;;;;;7.15;4.85;;;26.80;34.10;;;;;;5022126;28;20041;-71
2021/05/31 12:32:07;;;;;;;7.60;4.18;;;26.80;32.80;;;;;;5027630;28;20060;-70
2021/05/31 12:34:34;;;;;;;9.85;4.93;;;26.80;34.80;;;;;;5028643;28;20037;-70
2021/05/31 12:37:07;;;;;;;7.20;4.53;;;26.10;33.60;;;;;;5013590;28;20038;-69
2021/05/31 12:39:34;;;;;;;7.95;4.40;;;25.50;34.20;;;;;;5003811;28;20041;-69
2021/05/31 12:42:02;;;;;;;8.18;5.18;;;25.60;34.60;;;;;;5005147;28;20027;-70
2021/05/31 12:44:28;;;;;;;9.15;4.45;;;25.90;34.90;;;;;;5026348;28;20060;-68
2021/05/31 12:47:13;;;;;;;7.22;4.47;;;25.80;34.10;;;;;;5024109;28;20405;-68
2021/05/31 12:49:50;;;;;;;7.15;4.63;;;26.20;35.30;;;;;;5009376;28;20040;-70
2021/05/31 12:52:31;;;;;;;9.20;4.72;;;26.40;33.90;;;;;;5013879;28;20053;-70
2021/05/31 12:55:16;;;;;;;7.75;4.60;;;26.80;33.90;;;;;;5017531;28;20504;-70
2021/05/31 12:57:48;;;;;;;7.95;4.60;;;26.60;34.40;;;;;;4997845;28;20053;-70
2021/05/31 13:00:22;;;;;;;8.00;4.80;;;26.60;33.40;;;;;;4996858;28;20045;-70